Time;durP1;ratioP1;P1;durP2;ratioP2;P2;SDS_P1;SDS_P2;PMS_P1;PMS_P2;Temp;Humidity;BMP_temperature;BMP_pressure;BME280_temperature;BME280_humidity;BME280_pressure;Samples;Min_cycle;Max_cycle;Signal;HPM_P1;HPM_P2
2023/02/16 00:00:59;;;;;;;15.85;11.18;;;3.20;99.90;;;;;;5115314;28;20232;-60
2023/02/16 00:03:25;;;;;;;11.50;10.00;;;3.20;99.90;;;;;;5115206;28;20197;-60
2023/02/16 00:05:52;;;;;;;12.95;9.55;;;3.20;99.90;;;;;;5115036;28;20276;-60
2023/02/16 00:08:18;;;;;;;12.10;10.13;;;3.20;99.90;;;;;;5115166;28;20687;-60
2023/02/16 00:13:43;;;;;;;12.00;9.30;;;3.20;99.90;;;;;;5115321;28;20268;-60
2023/02/16 00:13:43;;;;;;;12.27;9.55;;;3.20;99.90;;;;;;5115340;28;20193;-60
2023/02/16 00:16:14;;;;;;;11.75;9.60;;;3.20;99.90;;;;;;5114944;28;20192;-60
2023/02/16 00:18:40;;;;;;;13.35;10.73;;;3.30;99.90;;;;;;5115200;28;20197;-60
2023/02/16 00:21:07;;;;;;;10.90;8.93;;;3.20;99.90;;;;;;5114957;28;20222;-60
2023/02/16 00:23:33;;;;;;;13.52;9.75;;;3.30;99.90;;;;;;5114709;28;20189;-60
2023/02/16 00:26:00;;;;;;;12.13;9.20;;;3.30;99.90;;;;;;5114918;28;20257;-60
2023/02/16 00:28:26;;;;;;;14.27;10.32;;;3.40;99.90;;;;;;5114789;28;20192;-60
2023/02/16 00:30:53;;;;;;;15.40;10.05;;;3.30;99.90;;;;;;5114712;28;20192;-60
2023/02/16 00:33:21;;;;;;;13.93;10.77;;;3.40;99.90;;;;;;5114843;28;20281;-60
2023/02/16 00:35:48;;;;;;;13.15;9.77;;;3.40;99.90;;;;;;5114687;28;20192;-60
2023/02/16 00:38:15;;;;;;;13.52;9.90;;;3.40;99.90;;;;;;5114721;28;20189;-60
2023/02/16 00:40:42;;;;;;;14.07;9.93;;;3.40;99.90;;;;;;5114520;28;20256;-60
2023/02/16 00:43:13;;;;;;;15.00;11.63;;;3.40;99.90;;;;;;5114342;28;20621;-60
2023/02/16 00:45:40;;;;;;;14.75;9.57;;;3.40;99.90;;;;;;5114385;28;20232;-60
2023/02/16 00:48:06;;;;;;;14.90;10.82;;;3.40;99.90;;;;;;5114471;28;20590;-60
2023/02/16 00:50:34;;;;;;;13.68;9.90;;;3.40;99.90;;;;;;5113504;28;20227;-60
2023/02/16 00:53:02;;;;;;;10.20;9.20;;;3.40;99.90;;;;;;5114174;28;20189;-60
2023/02/16 00:55:31;;;;;;;13.32;10.15;;;3.30;99.90;;;;;;5114275;28;20196;-60
2023/02/16 00:58:04;;;;;;;14.13;10.40;;;3.20;99.90;;;;;;5114220;28;20200;-60
2023/02/16 01:00:34;;;;;;;16.33;10.48;;;3.20;99.90;;;;;;5114231;28;20227;-60
2023/02/16 01:03:04;;;;;;;14.90;10.90;;;3.20;99.90;;;;;;5114319;28;20193;-60
2023/02/16 01:05:31;;;;;;;13.60;10.20;;;3.20;99.90;;;;;;5113889;28;20281;-60
2023/02/16 01:13:49;;;;;;;17.33;10.95;;;3.20;99.90;;;;;;5090465;27;20539;-60
2023/02/16 01:16:19;;;;;;;14.50;11.27;;;3.20;99.90;;;;;;5090322;28;20194;-61
2023/02/16 01:18:46;;;;;;;14.80;10.15;;;3.20;99.90;;;;;;5089744;28;20204;-61
2023/02/16 01:21:13;;;;;;;14.05;10.40;;;3.10;99.90;;;;;;5090547;28;20277;-61
2023/02/16 01:23:39;;;;;;;14.85;10.43;;;3.10;99.90;;;;;;5090211;28;20556;-62
2023/02/16 01:26:11;;;;;;;14.75;11.25;;;3.10;99.90;;;;;;5090400;28;20277;-60
2023/02/16 01:28:38;;;;;;;14.93;11.68;;;3.10;99.90;;;;;;5090782;28;20221;-61
2023/02/16 01:31:06;;;;;;;14.45;10.50;;;3.20;99.90;;;;;;5090127;28;20377;-61
2023/02/16 01:33:32;;;;;;;16.58;11.00;;;3.10;99.90;;;;;;5089909;28;20811;-61
2023/02/16 01:35:59;;;;;;;19.77;10.93;;;3.10;99.90;;;;;;5090270;28;20247;-61
2023/02/16 01:38:27;;;;;;;15.07;11.05;;;3.00;99.90;;;;;;5089935;28;20733;-61
2023/02/16 01:41:05;;;;;;;15.18;9.55;;;2.80;99.90;;;;;;5089965;28;20280;-61
2023/02/16 01:43:41;;;;;;;13.52;10.88;;;2.80;99.90;;;;;;5089735;28;20235;-61
2023/02/16 01:46:14;;;;;;;13.48;11.40;;;2.70;99.90;;;;;;5090042;28;20286;-61
2023/02/16 01:48:41;;;;;;;12.00;10.13;;;2.70;99.90;;;;;;5089849;28;20263;-60
2023/02/16 01:51:15;;;;;;;14.63;11.05;;;2.80;99.90;;;;;;5089844;28;20194;-60
2023/02/16 01:53:46;;;;;;;15.20;10.27;;;2.80;99.90;;;;;;5089637;28;20243;-61
2023/02/16 01:56:18;;;;;;;13.93;9.90;;;2.80;99.90;;;;;;5089521;28;20293;-60
2023/02/16 01:58:50;;;;;;;11.98;10.10;;;2.80;99.90;;;;;;5089503;28;20649;-61
2023/02/16 02:01:39;;;;;;;13.95;10.63;;;2.70;99.90;;;;;;5089810;28;20200;-60
2023/02/16 02:07:05;;;;;;;13.98;10.68;;;2.70;99.90;;;;;;5089574;28;20221;-61
2023/02/16 02:09:38;;;;;;;12.75;10.15;;;2.60;99.90;;;;;;5089585;28;20196;-61
2023/02/16 02:12:13;;;;;;;15.05;11.00;;;2.70;99.90;;;;;;5089239;28;20236;-61
2023/02/16 02:14:40;;;;;;;14.05;10.65;;;2.70;99.90;;;;;;5089246;28;20532;-61
2023/02/16 02:17:12;;;;;;;17.88;11.13;;;2.70;99.90;;;;;;5089205;28;20190;-60
2023/02/16 02:19:50;;;;;;;15.05;11.10;;;2.70;99.90;;;;;;5089351;28;20285;-61
2023/02/16 02:26:06;;;;;;;16.63;11.02;;;2.70;99.90;;;;;;5075757;28;20193;-61
2023/02/16 02:28:44;;;;;;;16.15;11.85;;;2.70;99.90;;;;;;5075758;28;20281;-60
2023/02/16 02:31:15;;;;;;;13.15;10.18;;;2.60;99.90;;;;;;5075641;28;20191;-61
2023/02/16 02:33:51;;;;;;;14.05;11.02;;;2.70;99.90;;;;;;5075359;28;20216;-60
2023/02/16 02:36:26;;;;;;;16.55;11.32;;;2.60;99.90;;;;;;5075726;28;20633;-60
2023/02/16 02:39:03;;;;;;;13.55;10.45;;;2.60;99.90;;;;;;5075360;28;20185;-60
2023/02/16 02:44:25;;;;;;;14.45;10.68;;;2.70;99.90;;;;;;5075330;28;20192;-60
2023/02/16 02:46:52;;;;;;;15.15;11.43;;;2.70;99.90;;;;;;5075338;28;20214;-61
2023/02/16 02:49:19;;;;;;;13.40;10.10;;;2.70;99.90;;;;;;5075151;28;20331;-61
2023/02/16 02:51:46;;;;;;;14.05;10.38;;;2.70;99.90;;;;;;5074983;28;20224;-60
2023/02/16 03:02:44;;;;;;;12.35;9.40;;;2.60;99.90;;;;;;5074907;28;20193;-60
2023/02/16 03:05:13;;;;;;;15.32;10.60;;;2.50;99.90;;;;;;5074959;28;20195;-60
2023/02/16 03:07:48;;;;;;;15.27;11.20;;;2.50;99.90;;;;;;5075011;28;20235;-61
2023/02/16 03:13:20;;;;;;;17.98;11.05;;;2.50;99.90;;;;;;4993033;28;20265;-61
2023/02/16 03:15:54;;;;;;;12.98;10.32;;;2.60;99.90;;;;;;4993314;28;20287;-61
2023/02/16 03:29:25;;;;;;;12.40;9.73;;;2.50;99.90;;;;;;4992976;28;20234;-60
2023/02/16 03:31:55;;;;;;;13.00;9.75;;;2.50;99.90;;;;;;5055057;28;20199;-60
2023/02/16 03:34:22;;;;;;;11.98;10.57;;;2.60;99.90;;;;;;5074753;28;20198;-60
2023/02/16 03:36:57;;;;;;;14.00;10.05;;;2.60;99.90;;;;;;5073422;28;20197;-60
2023/02/16 03:39:24;;;;;;;13.32;10.52;;;2.70;99.90;;;;;;5074335;28;20191;-60
2023/02/16 03:41:52;;;;;;;13.90;10.50;;;2.70;99.90;;;;;;5074202;28;20594;-61
2023/02/16 03:44:19;;;;;;;14.98;9.70;;;2.70;99.90;;;;;;5073948;28;20293;-60
2023/02/16 03:46:48;;;;;;;12.60;10.23;;;2.70;99.90;;;;;;5074323;28;20278;-61
2023/02/16 03:49:16;;;;;;;15.88;10.75;;;2.70;99.90;;;;;;5074252;28;20190;-60
2023/02/16 03:51:42;;;;;;;14.48;10.68;;;2.70;99.90;;;;;;5074028;28;20558;-60
2023/02/16 03:54:09;;;;;;;14.82;10.65;;;2.70;99.90;;;;;;5073841;28;20222;-61
2023/02/16 03:56:35;;;;;;;15.00;10.85;;;2.70;99.90;;;;;;5073860;28;20197;-60
2023/02/16 03:59:02;;;;;;;16.42;11.77;;;2.60;99.90;;;;;;5073697;28;20668;-60
2023/02/16 04:01:28;;;;;;;16.13;10.35;;;2.60;99.90;;;;;;5073774;28;20646;-61
2023/02/16 04:03:55;;;;;;;16.70;10.70;;;2.60;99.90;;;;;;5073726;28;20190;-61
2023/02/16 04:06:22;;;;;;;13.18;9.95;;;2.50;99.90;;;;;;5073720;28;20200;-60
2023/02/16 04:08:49;;;;;;;15.18;11.13;;;2.50;99.90;;;;;;5073603;28;20657;-61
2023/02/16 04:14:00;;;;;;;15.40;10.70;;;2.50;99.90;;;;;;5073504;28;20620;-60
2023/02/16 04:16:26;;;;;;;14.30;10.43;;;2.50;99.90;;;;;;5073558;28;20189;-60
2023/02/16 04:18:53;;;;;;;12.90;10.00;;;2.60;99.90;;;;;;5073464;28;20194;-61
2023/02/16 04:21:19;;;;;;;17.08;11.20;;;2.60;99.90;;;;;;5073462;28;20200;-60
2023/02/16 04:23:47;;;;;;;16.33;11.13;;;2.60;99.90;;;;;;5073176;28;20277;-60
2023/02/16 04:26:13;;;;;;;13.85;10.63;;;2.70;99.90;;;;;;5073124;28;20278;-60
2023/02/16 04:28:40;;;;;;;11.82;9.35;;;2.70;99.90;;;;;;5073251;28;20194;-61
2023/02/16 04:31:06;;;;;;;16.27;11.27;;;2.70;99.90;;;;;;5073382;28;20250;-61
2023/02/16 04:33:33;;;;;;;15.13;9.73;;;2.70;99.90;;;;;;5073163;28;20313;-61
2023/02/16 04:35:59;;;;;;;14.88;10.27;;;2.80;99.90;;;;;;5073236;28;20281;-60
2023/02/16 04:38:26;;;;;;;19.45;11.10;;;2.80;99.90;;;;;;5073063;28;20190;-61
2023/02/16 04:40:54;;;;;;;12.00;10.73;;;2.80;99.90;;;;;;5073328;28;20200;-60
2023/02/16 04:43:20;;;;;;;16.08;11.07;;;2.80;99.90;;;;;;5073068;28;20197;-60
2023/02/16 04:45:47;;;;;;;14.50;10.88;;;2.70;99.90;;;;;;5073195;28;20196;-60
2023/02/16 04:48:13;;;;;;;16.33;11.30;;;2.80;99.90;;;;;;5072852;28;20613;-60
2023/02/16 04:50:39;;;;;;;16.83;11.45;;;2.80;99.90;;;;;;5072971;28;20188;-61
2023/02/16 04:53:07;;;;;;;21.15;11.90;;;2.80;99.90;;;;;;5072739;28;20211;-61
2023/02/16 04:55:33;;;;;;;15.15;11.65;;;2.80;99.90;;;;;;5073072;28;20691;-60
2023/02/16 04:58:01;;;;;;;17.88;11.25;;;2.80;99.90;;;;;;5073060;28;20201;-61
2023/02/16 05:00:28;;;;;;;13.85;10.77;;;2.70;99.90;;;;;;5073167;28;20187;-61
2023/02/16 05:02:54;;;;;;;14.80;11.65;;;2.70;99.90;;;;;;5073010;28;20229;-61
2023/02/16 05:05:21;;;;;;;13.68;11.25;;;2.80;99.90;;;;;;5072990;28;20241;-61
2023/02/16 05:07:48;;;;;;;13.10;11.20;;;2.80;99.90;;;;;;5072876;28;20221;-61
2023/02/16 05:10:14;;;;;;;14.23;11.98;;;2.80;99.90;;;;;;5073059;28;20236;-61
2023/02/16 05:15:27;;;;;;;12.75;11.13;;;2.80;99.90;;;;;;5072872;28;20233;-61
2023/02/16 05:17:53;;;;;;;17.70;11.95;;;2.80;99.90;;;;;;5072712;28;20193;-61
2023/02/16 05:21:28;;;;;;;13.38;10.50;;;2.80;99.90;;;;;;5072927;28;20191;-61
2023/02/16 05:23:07;;;;;;;14.80;11.50;;;2.80;99.90;;;;;;5072606;28;20662;-61
2023/02/16 05:25:34;;;;;;;15.15;11.30;;;2.90;99.90;;;;;;5072655;28;20190;-61
2023/02/16 05:28:01;;;;;;;14.60;10.60;;;2.90;99.90;;;;;;5072751;28;20194;-61
2023/02/16 05:30:29;;;;;;;13.00;11.15;;;3.00;99.90;;;;;;5072633;28;20552;-60
2023/02/16 05:32:55;;;;;;;13.27;11.05;;;3.00;99.90;;;;;;5072619;28;20218;-61
2023/02/16 05:35:22;;;;;;;13.15;9.57;;;2.90;99.90;;;;;;5072595;28;20670;-61
2023/02/16 05:37:49;;;;;;;15.18;11.15;;;2.90;99.90;;;;;;5072875;28;20427;-61
2023/02/16 05:40:15;;;;;;;13.25;10.57;;;2.90;99.90;;;;;;5072638;28;20245;-61
2023/02/16 05:42:42;;;;;;;13.73;10.63;;;2.90;99.90;;;;;;5072680;28;20654;-60
2023/02/16 05:45:09;;;;;;;16.85;11.23;;;2.90;99.90;;;;;;5072474;28;20193;-61
2023/02/16 05:47:38;;;;;;;15.45;10.60;;;2.90;99.90;;;;;;5072521;28;20643;-61
2023/02/16 05:50:05;;;;;;;13.07;10.85;;;2.90;99.90;;;;;;5072717;28;20240;-61
2023/02/16 05:52:32;;;;;;;16.77;11.40;;;2.70;99.90;;;;;;5072857;28;20190;-61
2023/02/16 05:54:59;;;;;;;14.63;11.10;;;2.60;99.90;;;;;;5072340;28;20489;-61
2023/02/16 05:57:25;;;;;;;17.23;12.50;;;2.50;99.90;;;;;;5072471;28;20715;-61
2023/02/16 05:59:52;;;;;;;19.05;12.50;;;2.50;99.90;;;;;;5075043;28;20190;-61
2023/02/16 06:02:19;;;;;;;18.58;13.73;;;2.40;99.90;;;;;;5076103;28;20187;-60
2023/02/16 06:04:47;;;;;;;17.50;12.35;;;2.20;99.90;;;;;;5076255;28;20202;-61
2023/02/16 06:07:14;;;;;;;19.90;12.40;;;2.20;99.90;;;;;;5076122;28;20233;-61
2023/02/16 06:09:40;;;;;;;20.58;13.50;;;2.20;99.90;;;;;;5076138;28;20252;-59
2023/02/16 06:12:07;;;;;;;16.50;12.38;;;2.20;99.90;;;;;;5075679;28;20222;-60
2023/02/16 06:14:34;;;;;;;19.98;13.75;;;2.20;99.90;;;;;;5075643;28;20223;-60
2023/02/16 06:17:00;;;;;;;14.75;11.85;;;2.10;99.90;;;;;;5075943;28;20200;-61
2023/02/16 06:19:27;;;;;;;17.08;11.85;;;2.00;99.90;;;;;;5075957;28;20186;-61
2023/02/16 06:21:56;;;;;;;23.38;12.90;;;2.10;99.90;;;;;;5075799;28;20272;-61
2023/02/16 06:24:22;;;;;;;17.63;12.68;;;2.20;99.90;;;;;;5075791;28;20190;-61
2023/02/16 06:26:49;;;;;;;16.88;12.52;;;2.20;99.90;;;;;;5075848;28;20195;-61
2023/02/16 06:29:16;;;;;;;16.60;12.63;;;2.30;99.90;;;;;;5076010;28;20591;-61
2023/02/16 06:31:43;;;;;;;17.02;12.63;;;2.40;99.90;;;;;;5075681;28;20274;-61
2023/02/16 06:34:10;;;;;;;17.88;12.93;;;;;;;;;;5075692;28;20248;-61
2023/02/16 06:36:37;;;;;;;16.30;13.32;;;;;;;;;;5075869;28;20190;-61
2023/02/16 06:39:05;;;;;;;17.08;12.57;;;;;;;;;;5075665;28;20195;-60
2023/02/16 06:41:36;;;;;;;20.08;14.40;;;;;;;;;;5075511;28;20607;-61
2023/02/16 06:44:04;;;;;;;16.77;13.27;;;;;;;;;;5075643;28;20278;-61
2023/02/16 06:46:31;;;;;;;16.77;13.75;;;;;;;;;;5075557;28;20185;-61
2023/02/16 06:48:58;;;;;;;17.92;13.93;;;;;;;;;;5075432;28;20649;-61
2023/02/16 06:51:26;;;;;;;18.05;13.10;;;;;;;;;;5075296;28;20200;-61
2023/02/16 06:53:53;;;;;;;18.40;14.32;;;;;;;;;;5075129;28;20209;-61
2023/02/16 06:56:21;;;;;;;20.45;14.65;;;;;;;;;;5075112;28;20225;-61
2023/02/16 06:58:48;;;;;;;19.45;14.15;;;;;;;;;;5075208;28;20201;-61
2023/02/16 07:01:16;;;;;;;18.77;13.20;;;;;;;;;;5075074;28;20231;-61
2023/02/16 07:03:43;;;;;;;18.08;13.65;;;;;;;;;;5075262;28;20656;-61
2023/02/16 07:06:10;;;;;;;19.58;13.52;;;;;;;;;;5074861;28;20202;-61
2023/02/16 07:08:37;;;;;;;18.40;14.23;;;;;;;;;;5074792;28;20233;-61
2023/02/16 07:11:05;;;;;;;19.77;14.30;;;;;;;;;;5074715;28;20650;-60
2023/02/16 07:13:35;;;;;;;20.20;14.00;;;;;;;;;;5074430;28;20223;-59
2023/02/16 07:16:02;;;;;;;17.52;14.05;;;;;;;;;;5074818;28;20195;-60
2023/02/16 07:18:29;;;;;;;21.10;14.95;;;;;;;;;;5074776;28;20591;-60
2023/02/16 07:20:56;;;;;;;17.02;13.60;;;;;;;;;;5074529;28;20197;-59
2023/02/16 07:23:23;;;;;;;19.38;14.10;;;;;;;;;;5074534;28;20657;-59
2023/02/16 07:25:50;;;;;;;19.58;14.52;;;;;;;;;;5074650;28;20674;-60
2023/02/16 07:28:17;;;;;;;18.05;13.60;;;;;;;;;;5074818;28;20259;-59
2023/02/16 07:30:45;;;;;;;18.48;12.73;;;;;;;;;;5074560;28;20198;-60
2023/02/16 07:33:12;;;;;;;22.67;14.60;;;;;;;;;;5074483;28;20219;-60
2023/02/16 07:35:40;;;;;;;21.95;14.80;;;;;;;;;;5074327;28;20204;-59
2023/02/16 07:38:07;;;;;;;23.65;15.35;;;;;;;;;;5074602;28;20241;-59
2023/02/16 07:40:34;;;;;;;19.60;14.70;;;;;;;;;;5074408;28;20223;-59
2023/02/16 07:43:01;;;;;;;21.63;14.38;;;;;;;;;;5074219;28;20690;-60
2023/02/16 07:45:31;;;;;;;17.45;14.10;;;;;;;;;;5074410;28;20204;-60
2023/02/16 07:48:00;;;;;;;21.70;13.80;;;;;;;;;;5074092;28;20274;-60
2023/02/16 07:50:27;;;;;;;16.42;12.77;;;;;;;;;;5073931;28;20201;-60
2023/02/16 07:52:54;;;;;;;17.25;14.35;;;;;;;;;;5074344;28;20272;-61
2023/02/16 07:55:21;;;;;;;16.45;14.02;;;;;;;;;;5074213;28;20218;-63
2023/02/16 07:57:53;;;;;;;23.85;15.93;;;;;;;;;;5074101;28;20195;-61
2023/02/16 08:00:21;;;;;;;23.80;16.10;;;;;;;;;;5073983;28;20198;-61
2023/02/16 08:02:48;;;;;;;19.83;15.73;;;;;;;;;;5073692;28;20199;-61
2023/02/16 08:05:17;;;;;;;20.92;16.15;;;;;;;;;;5073857;28;20191;-61
2023/02/16 08:07:44;;;;;;;21.77;15.73;;;;;;;;;;5073801;28;20200;-62
2023/02/16 08:10:11;;;;;;;22.50;16.50;;;;;;;;;;5073791;28;20652;-60
2023/02/16 08:12:39;;;;;;;20.80;15.63;;;;;;;;;;5073610;28;20589;-60
2023/02/16 08:15:06;;;;;;;24.85;17.58;;;;;;;;;;5073466;28;20227;-60
2023/02/16 08:17:34;;;;;;;25.60;19.55;;;;;;;;;;5073592;28;20206;-60
2023/02/16 08:20:01;;;;;;;21.85;16.98;;;;;;;;;;5073477;28;20564;-60
2023/02/16 08:22:30;;;;;;;21.65;17.35;;;;;;;;;;5073099;28;20194;-60
2023/02/16 08:24:58;;;;;;;21.88;17.77;;;;;;;;;;5073725;28;20250;-60
2023/02/16 08:27:26;;;;;;;23.00;18.98;;;;;;;;;;5073436;28;20227;-61
2023/02/16 08:29:53;;;;;;;21.67;16.58;;;;;;;;;;5073216;28;20667;-63
2023/02/16 08:32:20;;;;;;;23.55;16.85;;;;;;;;;;5072626;28;20201;-63
2023/02/16 08:34:47;;;;;;;28.48;18.70;;;;;;;;;;5073292;28;20219;-64
2023/02/16 08:37:14;;;;;;;25.38;18.20;;;;;;;;;;5073157;28;20202;-61
2023/02/16 08:39:43;;;;;;;25.73;19.38;;;;;;;;;;5073201;28;20191;-60
2023/02/16 08:42:11;;;;;;;26.73;19.27;;;;;;;;;;5073175;28;20198;-56
2023/02/16 08:44:40;;;;;;;27.95;18.63;;;;;;;;;;5073050;28;20591;-55
2023/02/16 08:47:08;;;;;;;25.58;18.20;;;;;;;;;;5072625;28;20652;-59
2023/02/16 08:49:35;;;;;;;23.70;17.95;;;;;;;;;;5072613;28;20261;-60
2023/02/16 08:52:03;;;;;;;23.17;17.55;;;;;;;;;;5072982;28;20192;-61
2023/02/16 08:54:32;;;;;;;24.25;18.17;;;;;;;;;;5072454;28;20227;-56
2023/02/16 08:57:01;;;;;;;25.75;18.00;;;;;;;;;;5072747;28;20606;-60
2023/02/16 08:59:28;;;;;;;26.20;17.90;;;;;;;;;;5073149;28;20193;-61
2023/02/16 09:01:58;;;;;;;22.33;17.30;;;5.80;99.90;;;;;;5072582;28;20649;-61
2023/02/16 09:04:26;;;;;;;24.95;16.92;;;5.90;99.90;;;;;;5073236;28;20815;-55
2023/02/16 09:06:53;;;;;;;25.02;17.23;;;5.90;99.90;;;;;;5072808;28;20610;-60
2023/02/16 09:09:20;;;;;;;22.35;17.55;;;6.00;99.90;;;;;;5072688;28;20194;-61
2023/02/16 09:11:47;;;;;;;24.40;18.03;;;6.00;99.90;;;;;;5072671;28;20220;-65
2023/02/16 09:14:17;;;;;;;22.77;17.30;;;6.10;99.90;;;;;;5072197;28;20473;-61
2023/02/16 09:16:45;;;;;;;22.10;16.47;;;6.20;99.90;;;;;;5072899;28;20499;-59
2023/02/16 09:19:14;;;;;;;22.43;16.20;;;6.20;99.90;;;;;;5072404;28;20985;-60
2023/02/16 09:21:43;;;;;;;24.83;17.93;;;6.30;99.90;;;;;;5072295;28;20451;-64
2023/02/16 09:24:11;;;;;;;23.55;16.90;;;6.40;99.90;;;;;;5072701;28;20462;-67
2023/02/16 09:26:41;;;;;;;25.70;18.02;;;6.40;99.90;;;;;;5072618;28;20644;-63
2023/02/16 09:29:08;;;;;;;20.90;16.30;;;6.50;99.90;;;;;;5072886;28;20200;-62
2023/02/16 09:31:38;;;;;;;21.07;16.40;;;6.50;99.90;;;;;;5072456;28;21007;-63
2023/02/16 09:34:08;;;;;;;22.37;16.30;;;6.60;99.90;;;;;;5073869;28;20450;-63
2023/02/16 09:36:35;;;;;;;23.33;18.20;;;6.60;99.90;;;;;;5076217;28;20985;-56
2023/02/16 09:39:03;;;;;;;20.40;15.13;;;6.60;99.90;;;;;;5076458;28;20454;-63
2023/02/16 09:41:45;;;;;;;23.57;16.77;;;6.70;99.90;;;;;;5076450;28;20462;-62
2023/02/16 09:44:22;;;;;;;26.63;17.60;;;6.80;99.90;;;;;;5076499;28;20473;-61
2023/02/16 09:46:51;;;;;;;24.57;17.57;;;6.80;99.90;;;;;;5076388;28;20447;-61
2023/02/16 09:49:25;;;;;;;25.30;17.03;;;6.90;99.90;;;;;;5076450;28;20446;-60
2023/02/16 09:52:02;;;;;;;25.20;17.30;;;6.90;99.90;;;;;;5076465;28;20451;-59
2023/02/16 09:54:37;;;;;;;23.10;15.77;;;7.10;99.90;;;;;;5076176;28;20532;-61
2023/02/16 09:57:12;;;;;;;23.17;17.00;;;7.20;99.90;;;;;;5075915;28;20541;-59
2023/02/16 09:59:48;;;;;;;24.60;17.90;;;7.20;99.90;;;;;;5075868;28;20450;-60
2023/02/16 10:02:30;;;;;;;22.37;17.13;;;7.20;99.90;;;;;;5075771;28;20458;-60
2023/02/16 10:05:12;;;;;;;26.33;19.37;;;7.30;99.90;;;;;;5075661;28;20450;-59
2023/02/16 10:07:45;;;;;;;23.17;17.60;;;7.40;99.90;;;;;;5075554;28;20930;-61
2023/02/16 10:10:16;;;;;;;22.80;17.60;;;7.40;99.90;;;;;;5075745;28;20442;-59
2023/02/16 10:12:48;;;;;;;24.55;17.92;;;7.50;99.90;;;;;;5075422;28;20457;-63
2023/02/16 10:15:19;;;;;;;26.17;18.70;;;7.60;99.90;;;;;;5075898;28;20230;-58
2023/02/16 10:17:52;;;;;;;24.75;19.17;;;7.70;99.90;;;;;;5075566;28;20507;-60
2023/02/16 10:20:23;;;;;;;27.30;19.07;;;7.80;99.90;;;;;;5075497;28;20193;-60
2023/02/16 10:22:55;;;;;;;27.50;18.63;;;7.90;99.90;;;;;;5075398;28;20881;-61
2023/02/16 10:25:26;;;;;;;27.60;18.93;;;8.00;99.90;;;;;;5075689;28;20594;-61
2023/02/16 10:28:15;;;;;;;25.77;18.20;;;8.10;99.90;;;;;;5075786;28;20799;-61
2023/02/16 10:30:46;;;;;;;24.87;17.67;;;8.30;99.90;;;;;;5075420;28;20874;-60
2023/02/16 10:33:16;;;;;;;25.07;17.30;;;8.40;99.90;;;;;;5075774;28;20447;-64
2023/02/16 10:35:46;;;;;;;25.57;17.90;;;8.50;99.90;;;;;;5075429;28;20487;-60
2023/02/16 10:38:20;;;;;;;27.27;18.57;;;8.60;99.90;;;;;;5075624;28;20844;-58
2023/02/16 10:40:55;;;;;;;27.20;18.20;;;8.60;99.90;;;;;;5075530;28;20452;-62
2023/02/16 10:43:36;;;;;;;26.93;19.23;;;8.70;99.90;;;;;;5075230;28;20451;-60
2023/02/16 10:46:03;;;;;;;26.00;17.27;;;8.80;99.90;;;;;;5074637;28;20452;-58
2023/02/16 10:48:32;;;;;;;21.17;17.00;;;8.80;99.90;;;;;;5075156;28;20459;-59
2023/02/16 10:51:03;;;;;;;26.27;19.03;;;8.90;99.90;;;;;;5075286;28;20447;-57
2023/02/16 10:53:38;;;;;;;25.07;18.63;;;8.90;99.90;;;;;;5075203;28;20452;-60
2023/02/16 10:56:24;;;;;;;28.77;19.40;;;9.00;99.90;;;;;;5075288;28;20505;-59
2023/02/16 10:58:51;;;;;;;27.30;19.23;;;9.00;99.90;;;;;;5075010;28;20505;-62
2023/02/16 11:01:21;;;;;;;24.67;18.40;;;9.00;99.90;;;;;;5074652;28;20815;-60
2023/02/16 11:03:51;;;;;;;29.40;19.20;;;9.00;99.90;;;;;;5074676;28;20538;-60
2023/02/16 11:06:21;;;;;;;26.50;19.67;;;9.10;99.90;;;;;;5074755;28;20452;-60
2023/02/16 11:08:50;;;;;;;27.20;18.97;;;9.10;99.90;;;;;;5075074;28;20452;-61
2023/02/16 11:11:18;;;;;;;25.07;19.30;;;9.20;99.90;;;;;;5074882;28;20512;-62
2023/02/16 11:13:48;;;;;;;25.03;18.27;;;9.30;99.90;;;;;;5074667;28;20451;-61
2023/02/16 11:16:21;;;;;;;23.30;17.00;;;9.40;99.90;;;;;;5074252;28;20490;-60
2023/02/16 11:18:58;;;;;;;26.40;18.60;;;9.50;99.90;;;;;;5074368;28;20542;-62
2023/02/16 11:21:43;;;;;;;25.30;17.17;;;9.50;99.90;;;;;;5074532;28;20483;-61
2023/02/16 11:24:13;;;;;;;26.65;19.13;;;9.70;99.90;;;;;;5073981;28;20533;-60
2023/02/16 11:26:40;;;;;;;23.63;17.93;;;9.70;99.90;;;;;;5074200;28;20560;-60
2023/02/16 11:29:17;;;;;;;24.90;18.10;;;9.70;99.90;;;;;;5074098;28;21006;-62
2023/02/16 11:31:44;;;;;;;27.83;18.63;;;9.80;99.90;;;;;;5074314;28;20455;-61
2023/02/16 11:34:21;;;;;;;27.90;17.00;;;9.80;99.90;;;;;;5074436;28;21053;-62
2023/02/16 11:36:48;;;;;;;25.30;17.70;;;9.80;99.90;;;;;;5074142;28;20518;-62
2023/02/16 11:39:20;;;;;;;25.80;18.57;;;9.90;99.90;;;;;;5074272;28;20452;-61
2023/02/16 11:41:50;;;;;;;25.37;18.30;;;9.90;99.90;;;;;;5074218;28;20448;-61
2023/02/16 11:44:26;;;;;;;26.27;17.00;;;9.90;99.90;;;;;;5073796;28;21053;-62
2023/02/16 11:46:55;;;;;;;23.80;17.40;;;10.00;99.90;;;;;;5074031;28;20458;-64
2023/02/16 11:49:31;;;;;;;25.73;17.70;;;9.90;99.90;;;;;;5073884;28;20474;-60
2023/02/16 11:51:59;;;;;;;23.80;17.67;;;10.00;99.90;;;;;;5073744;28;20497;-64
2023/02/16 11:54:26;;;;;;;26.70;18.90;;;10.00;99.90;;;;;;5074154;28;20452;-61
2023/02/16 11:57:05;;;;;;;29.60;19.40;;;10.00;99.90;;;;;;5073107;28;20483;-60
2023/02/16 11:59:36;;;;;;;23.60;18.33;;;9.90;99.90;;;;;;5073679;28;20947;-60
2023/02/16 12:02:24;;;;;;;24.07;17.87;;;10.00;99.90;;;;;;5073812;28;20448;-61
2023/02/16 12:05:09;;;;;;;24.97;18.27;;;10.10;99.90;;;;;;5073775;28;20970;-61
2023/02/16 12:07:43;;;;;;;24.87;19.20;;;10.20;99.90;;;;;;5073505;28;20452;-61
2023/02/16 12:10:17;;;;;;;27.20;19.10;;;10.30;99.90;;;;;;5073550;28;20472;-59
2023/02/16 12:12:52;;;;;;;26.37;18.17;;;10.30;99.90;;;;;;5073183;28;20566;-63
2023/02/16 12:15:24;;;;;;;31.67;18.53;;;10.30;99.90;;;;;;5073427;28;20830;-60
2023/02/16 12:18:09;;;;;;;30.00;18.67;;;10.40;99.90;;;;;;5073573;28;20562;-60
2023/02/16 12:20:47;;;;;;;24.23;18.30;;;10.50;99.90;;;;;;5073345;28;20448;-60
2023/02/16 12:23:35;;;;;;;25.70;17.57;;;10.60;99.90;;;;;;5072650;28;20558;-60
2023/02/16 12:26:25;;;;;;;22.60;16.77;;;10.60;99.90;;;;;;5073295;28;20447;-60
2023/02/16 12:29:00;;;;;;;24.20;17.03;;;10.60;99.90;;;;;;5069267;28;20448;-60
2023/02/16 12:31:34;;;;;;;32.23;18.40;;;10.60;99.90;;;;;;5072960;28;20799;-60
2023/02/16 12:34:20;;;;;;;24.70;16.80;;;10.70;99.90;;;;;;5073284;28;20509;-60
2023/02/16 12:36:57;;;;;;;25.37;18.17;;;10.70;99.90;;;;;;5073127;28;20510;-60
2023/02/16 12:39:31;;;;;;;21.83;16.33;;;10.80;99.90;;;;;;5073076;28;20474;-60
2023/02/16 12:42:20;;;;;;;24.30;17.63;;;10.90;99.90;;;;;;5073035;28;20984;-60
2023/02/16 12:44:50;;;;;;;29.37;17.43;;;10.80;99.90;;;;;;5071255;28;20971;-60
2023/02/16 12:47:25;;;;;;;25.03;17.77;;;10.80;99.90;;;;;;5072819;28;20982;-60
2023/02/16 12:49:55;;;;;;;23.67;16.43;;;10.90;99.90;;;;;;5072756;28;20447;-60
2023/02/16 12:52:32;;;;;;;21.90;16.83;;;10.90;99.90;;;;;;5072878;28;20494;-61
2023/02/16 12:55:15;;;;;;;28.70;17.90;;;10.90;99.90;;;;;;5072843;28;20448;-59
2023/02/16 12:57:50;;;;;;;25.20;15.50;;;11.00;99.90;;;;;;5072950;28;20483;-61
2023/02/16 13:00:22;;;;;;;24.53;16.60;;;11.00;99.90;;;;;;5072910;28;20443;-61
2023/02/16 13:02:53;;;;;;;25.30;17.43;;;11.00;99.90;;;;;;5072782;28;20479;-60
2023/02/16 13:05:24;;;;;;;19.90;16.23;;;11.10;99.90;;;;;;5072922;28;20455;-60
2023/02/16 13:07:56;;;;;;;20.90;15.67;;;11.20;99.90;;;;;;5072956;28;20443;-61
2023/02/16 13:10:27;;;;;;;24.60;17.27;;;11.30;99.90;;;;;;5072845;28;20445;-62
2023/02/16 13:12:57;;;;;;;19.63;14.03;;;11.20;99.90;;;;;;5072580;28;20899;-60
2023/02/16 13:15:32;;;;;;;20.90;15.30;;;11.20;99.90;;;;;;5072371;28;20475;-59
2023/02/16 13:18:02;;;;;;;26.87;18.20;;;11.30;99.90;;;;;;5072806;28;20478;-60
2023/02/16 13:20:30;;;;;;;22.20;16.20;;;11.30;99.90;;;;;;5072600;28;20538;-60
2023/02/16 13:23:28;;;;;;;23.63;15.57;;;11.20;99.90;;;;;;5072499;28;20548;-60
2023/02/16 13:26:09;;;;;;;22.50;15.30;;;11.20;99.90;;;;;;5072442;28;20950;-60
2023/02/16 13:29:06;;;;;;;25.90;16.90;;;11.20;99.90;;;;;;5072321;28;20455;-60
2023/02/16 13:31:45;;;;;;;18.90;14.50;;;11.10;99.90;;;;;;5033953;28;20953;-60
2023/02/16 13:34:35;;;;;;;23.07;16.00;;;11.20;99.90;;;;;;5072417;28;20452;-60
2023/02/16 13:37:25;;;;;;;22.20;16.00;;;11.30;99.90;;;;;;5072557;28;20566;-60
2023/02/16 13:40:12;;;;;;;25.27;14.30;;;11.40;99.90;;;;;;5072511;28;20455;-60
2023/02/16 13:42:54;;;;;;;19.93;15.20;;;11.40;99.90;;;;;;5072297;28;20799;-60
2023/02/16 13:45:24;;;;;;;27.67;15.50;;;11.50;99.90;;;;;;5072510;28;20498;-60
2023/02/16 13:47:52;;;;;;;21.40;14.63;;;11.60;99.90;;;;;;5072599;28;20440;-60
2023/02/16 13:50:28;;;;;;;20.00;14.80;;;11.60;99.90;;;;;;5072460;28;20645;-62
2023/02/16 13:52:57;;;;;;;24.53;15.30;;;11.80;99.90;;;;;;5072587;28;20454;-62